• Join FlightAware (Why Join?)
  • Login
  • US Flag 
05:38AM EDT


 

Airport Tracker/Info


-or-


 

Live Flight TrackerFlight Track Log ✈ CSN6839 ✈ 01-Sep-2013 ✈ ZWWW / URC - ZWKC / KCA

Flight Track Log - Related Links

Times and Time Zones

All times are in EDT time to prevent confusion due to time zone crossing. See the CSN6839 flight status page for this flight to view local times or setup timezone preferences in your user account.

Time Position Orientation Groundspeed Altitude Reporting Facility
EDT Latitude Longitude Course Direction KTS MPH feet Rate Location/Type
04:37AM 43.8263 87.2960 238° Southwest  Level Estimated
04:38AM 43.7453 87.1182 238° Southwest  Level Estimated
04:39AM 43.6640 86.9408 238° Southwest  Level Estimated
04:40AM 43.5824 86.7640 238° Southwest  Level Estimated
04:41AM 43.5005 86.5876 237° Southwest  Level Estimated
04:42AM 43.4184 86.4118 237° Southwest  Level Estimated
04:43AM 43.3359 86.2364 237° Southwest  Level Estimated
04:44AM 43.2533 86.0614 237° Southwest  Level Estimated
04:45AM 43.1703 85.8870 237° Southwest  Level Estimated
04:46AM 43.0871 85.7130 237° Southwest  Level Estimated
04:47AM 43.0037 85.5395 237° Southwest  Level Estimated
04:48AM 42.9199 85.3665 237° Southwest  Level Estimated
04:49AM 42.8359 85.1939 236° Southwest  Level Estimated
04:50AM 42.7517 85.0218 236° Southwest  Level Estimated
04:51AM 42.6672 84.8502 236° Southwest  Level Estimated
04:52AM 42.5824 84.6790 236° Southwest  Level Estimated
04:53AM 42.4974 84.5083 236° Southwest  Level Estimated
04:54AM 42.4122 84.3381 236° Southwest  Level Estimated
04:55AM 42.3266 84.1683 236° Southwest  Level Estimated
04:56AM 42.2409 83.9990 236° Southwest  Level Estimated
04:57AM 42.1549 83.8301 236° Southwest  Level Estimated
04:58AM 42.0686 83.6618 235° Southwest  Level Estimated
04:59AM 41.9821 83.4938 235° Southwest  Level Estimated
05:00AM 41.8954 83.3264 235° Southwest  Level Estimated
05:01AM 41.8084 83.1593 235° Southwest  Level Estimated
05:02AM 41.7211 82.9928 235° Southwest  Level Estimated
05:03AM 41.7181 82.9869 235° Southwest  Level Estimated
05:04AM 41.7181 82.9869 143° Southeast  Level Estimated
05:05AM 41.7181 82.9869 143° Southeast  Level Estimated
05:06AM 41.7181 82.9869 143° Southeast  Level Estimated
05:07AM 41.7181 82.9869 143° Southeast  Level Estimated
05:08AM 41.7181 82.9869 143° Southeast  Level Estimated
05:09AM 41.7181 82.9869 143° Southeast  Level Estimated
05:10AM 41.7181 82.9869 143° Southeast  Level Estimated
05:11AM 41.7181 82.9869 143° Southeast  Level Estimated
05:12AM 41.7181 82.9869 143° Southeast  Level Estimated
05:13AM 41.7181 82.9869 143° Southeast  Level Estimated
05:14AM 41.7181 82.9869 143° Southeast  Level Estimated
05:15AM 41.7181 82.9869 143° Southeast  Level Estimated